メインページ
METAR-TAF:

METAR-TAF

空港 :

ブライダフ, サウジアラビア

緯度: 26-18N, 経度: 043-46E, 海抜: 648m

現時点の気象観測

当レポートは24分前の01:00(UTC)に作成
無風
気温 29°C
湿度 33%
気圧 1011 hPa
視程10km以上
高度4000ftの雲は散在している

METAR: OEGS 250100Z 00000KT 9999 SCT040 29/11 Q1011

時間: 04:24 (01:24 UTC)

予報

当レポートは2時間24分前の23:00(UTC)に作成
予報は25日の 00時(UTC)から 26日の 06時(UTC)まで有効
変向風 3kt
視程10km以上
高度4000ftの雲はほとんどない
高度10000ftの雲は散在している
25日の 06時(UTC)から 25日の 08時(UTC)まで徐々に
西/南西の風 15kt
高度4000ftの雲は散在している

TAF: OEGS 242300Z 2500/2606 VRB03KT 9999 FEW040 SCT100 BECMG 2506/2508 24015KT SCT040

4,000以上の空港の気象観測と天気予報(METAR報とTAF報)

利用可能な観測所は地図上に黄色い丸と赤い丸で示す。

丸の上にカーソルを重ねると観測所名を参照できる。

次にクリックすると気象観測と天気予報を参照できる。

マップの切り替え:黒色「×」印の緑ボタンをクリックして拡大、「-」印の緑ボタンをクリックして縮小、緑色の三角印をクリックして隣りの地図に切り替え


METAR-TAF: